Time;durP1;ratioP1;P1;durP2;ratioP2;P2;SDS_P1;SDS_P2;PMS_P1;PMS_P2;Temp;Humidity;BMP_temperature;BMP_pressure;BME280_temperature;BME280_humidity;BME280_pressure;Samples;Min_cycle;Max_cycle;Signal;HPM_P1;HPM_P2
2023/09/15 00:00:46;;;;;;;12.37;6.10;;;12.70;74.90;;;;;;5033170;28;20890;-76
2023/09/15 00:03:11;;;;;;;8.80;5.50;;;12.70;75.20;;;;;;5053697;28;20384;-75
2023/09/15 00:05:37;;;;;;;8.77;5.50;;;12.60;75.80;;;;;;5055441;28;20393;-75
2023/09/15 00:08:04;;;;;;;7.20;5.28;;;12.60;75.80;;;;;;5051922;28;20408;-75
2023/09/15 00:10:31;;;;;;;9.40;5.13;;;12.60;76.40;;;;;;5051374;28;20879;-75
2023/09/15 00:12:58;;;;;;;8.60;5.32;;;12.60;76.20;;;;;;5052153;28;20523;-76
2023/09/15 00:15:24;;;;;;;9.57;6.10;;;12.60;75.60;;;;;;5051301;28;20385;-76
2023/09/15 00:17:50;;;;;;;7.80;4.70;;;12.60;76.60;;;;;;5052735;28;20886;-75
2023/09/15 00:20:16;;;;;;;12.25;5.22;;;12.50;76.50;;;;;;5052922;28;20523;-76
2023/09/15 00:22:50;;;;;;;8.20;4.83;;;12.50;77.00;;;;;;5055572;28;20385;-74
2023/09/15 00:25:18;;;;;;;7.35;5.10;;;12.50;76.90;;;;;;5056917;28;20468;-75
2023/09/15 00:27:45;;;;;;;8.00;5.00;;;12.50;77.00;;;;;;5054673;28;20405;-75
2023/09/15 00:30:13;;;;;;;7.38;4.95;;;12.50;77.20;;;;;;5057817;28;20447;-76
2023/09/15 00:32:39;;;;;;;9.63;5.07;;;12.40;77.40;;;;;;5056353;28;20380;-74
2023/09/15 00:35:05;;;;;;;9.70;5.40;;;12.40;77.70;;;;;;5052384;28;20870;-76
2023/09/15 00:37:30;;;;;;;9.00;5.47;;;12.40;77.80;;;;;;5052477;28;20385;-74
2023/09/15 00:39:57;;;;;;;7.93;5.50;;;12.40;78.00;;;;;;5053010;28;20762;-77
2023/09/15 00:42:24;;;;;;;11.40;5.95;;;12.60;78.40;;;;;;5058435;28;20385;-77
2023/09/15 00:44:51;;;;;;;10.52;5.00;;;12.90;73.80;;;;;;5041323;28;20389;-77
2023/09/15 00:47:17;;;;;;;11.75;4.70;;;13.00;72.20;;;;;;5059728;28;20409;-77
2023/09/15 00:49:46;;;;;;;7.03;5.28;;;13.10;70.80;;;;;;5056934;28;20468;-76
2023/09/15 00:52:13;;;;;;;7.82;5.15;;;12.90;71.50;;;;;;5055716;28;20382;-77
2023/09/15 00:54:40;;;;;;;6.72;4.93;;;12.70;73.90;;;;;;5055140;28;20382;-77
2023/09/15 00:57:07;;;;;;;9.87;5.30;;;12.60;75.90;;;;;;5056184;28;20378;-75
2023/09/15 00:59:33;;;;;;;7.10;5.00;;;12.40;77.00;;;;;;5055529;28;20378;-75
2023/09/15 01:02:00;;;;;;;8.68;5.88;;;12.40;78.40;;;;;;5054382;28;20384;-75
2023/09/15 01:04:27;;;;;;;11.00;5.90;;;12.30;78.80;;;;;;5052882;28;20385;-75
2023/09/15 01:06:55;;;;;;;7.35;5.22;;;12.30;79.70;;;;;;5051353;28;20390;-75
2023/09/15 01:09:22;;;;;;;9.45;5.40;;;12.30;80.30;;;;;;5034584;28;20795;-75
2023/09/15 01:11:50;;;;;;;9.35;5.30;;;12.20;80.10;;;;;;5052518;28;20401;-75
2023/09/15 01:14:16;;;;;;;9.45;5.82;;;12.30;80.60;;;;;;5037923;28;20404;-75
2023/09/15 01:17:05;;;;;;;9.77;4.93;;;12.20;80.70;;;;;;5053076;28;20926;-75
2023/09/15 01:19:40;;;;;;;11.30;5.63;;;12.20;80.60;;;;;;5053910;28;20385;-76
2023/09/15 01:22:42;;;;;;;11.73;6.18;;;12.20;80.10;;;;;;5054445;28;20385;-76
2023/09/15 01:25:35;;;;;;;12.70;6.60;;;12.20;80.00;;;;;;5052330;28;20443;-75
2023/09/15 01:28:47;;;;;;;8.82;6.05;;;12.20;79.80;;;;;;5053657;28;20437;-75
2023/09/15 01:31:13;;;;;;;7.95;4.78;;;12.30;78.70;;;;;;5052793;28;20415;-77
2023/09/15 01:33:39;;;;;;;9.98;5.68;;;12.20;78.40;;;;;;5050836;28;20373;-74
2023/09/15 01:36:05;;;;;;;7.07;4.97;;;12.30;77.80;;;;;;5035245;28;20418;-76
2023/09/15 01:38:32;;;;;;;6.97;4.77;;;12.30;76.40;;;;;;5052097;28;20394;-75
2023/09/15 01:40:58;;;;;;;9.90;5.47;;;12.30;76.30;;;;;;5052462;28;20389;-75
2023/09/15 01:43:23;;;;;;;12.98;5.45;;;12.30;76.50;;;;;;5037255;28;20469;-75
2023/09/15 01:45:49;;;;;;;10.40;5.90;;;12.30;76.60;;;;;;5052745;28;20377;-76
2023/09/15 01:48:15;;;;;;;7.13;4.70;;;12.30;77.10;;;;;;5051118;28;20409;-75
2023/09/15 01:50:42;;;;;;;7.75;4.70;;;12.30;76.60;;;;;;5054090;28;20747;-76
2023/09/15 01:53:07;;;;;;;9.02;5.07;;;12.30;77.60;;;;;;5054366;28;20381;-75
2023/09/15 01:55:37;;;;;;;9.43;5.95;;;12.30;76.30;;;;;;5059337;28;20390;-76
2023/09/15 01:58:03;;;;;;;10.27;4.90;;;12.30;76.60;;;;;;5056929;28;20425;-75
2023/09/15 02:00:36;;;;;;;9.20;4.60;;;12.30;77.00;;;;;;5055000;28;20384;-76
2023/09/15 02:03:02;;;;;;;9.90;4.75;;;12.20;77.50;;;;;;5053618;28;20389;-76
2023/09/15 02:05:28;;;;;;;7.20;4.77;;;12.20;77.80;;;;;;5057575;28;20447;-75
2023/09/15 02:07:54;;;;;;;8.63;4.83;;;12.20;77.40;;;;;;5065605;28;20886;-75
2023/09/15 02:10:19;;;;;;;8.23;4.97;;;12.20;76.60;;;;;;5058087;28;20438;-75
2023/09/15 02:12:45;;;;;;;11.70;5.30;;;12.20;76.80;;;;;;5057126;28;20378;-76
2023/09/15 02:15:11;;;;;;;8.73;4.68;;;12.20;77.20;;;;;;5053905;28;20885;-76
2023/09/15 02:17:38;;;;;;;7.55;5.13;;;12.20;77.10;;;;;;5054733;28;20381;-75
2023/09/15 02:20:14;;;;;;;8.48;4.78;;;12.10;77.40;;;;;;5053809;28;20480;-75
2023/09/15 02:22:41;;;;;;;9.93;4.60;;;12.10;77.40;;;;;;5053620;28;20373;-75
2023/09/15 02:25:09;;;;;;;5.68;4.00;;;12.30;77.80;;;;;;5053481;28;20389;-76
2023/09/15 02:27:35;;;;;;;10.50;5.40;;;12.30;74.60;;;;;;5053238;28;20426;-76
2023/09/15 02:30:02;;;;;;;8.82;5.47;;;12.20;75.90;;;;;;5053381;28;20460;-76
2023/09/15 02:32:28;;;;;;;5.38;4.20;;;12.10;76.80;;;;;;5052835;28;20385;-76
2023/09/15 02:34:53;;;;;;;7.68;4.95;;;12.10;77.70;;;;;;5052885;28;20884;-75
2023/09/15 02:37:19;;;;;;;7.90;4.50;;;12.00;78.80;;;;;;5053406;28;20451;-76
2023/09/15 02:39:44;;;;;;;6.77;4.00;;;12.00;78.00;;;;;;5054444;28;20385;-76
2023/09/15 02:42:12;;;;;;;8.97;4.20;;;12.00;78.00;;;;;;5052809;28;20812;-76
2023/09/15 02:44:37;;;;;;;8.23;4.00;;;12.00;78.60;;;;;;5054100;28;20409;-77
2023/09/15 02:47:03;;;;;;;8.38;3.63;;;12.00;79.00;;;;;;5053327;28;20421;-76
2023/09/15 02:49:29;;;;;;;7.30;3.80;;;12.00;78.60;;;;;;5052790;28;20374;-76
2023/09/15 02:51:57;;;;;;;5.07;3.70;;;12.00;77.90;;;;;;5052563;28;20394;-76
2023/09/15 02:54:22;;;;;;;5.90;3.92;;;12.00;77.30;;;;;;5052699;28;20412;-76
2023/09/15 02:56:48;;;;;;;8.05;4.35;;;12.00;77.20;;;;;;5034618;28;20846;-75
2023/09/15 02:59:13;;;;;;;8.02;4.68;;;12.00;76.90;;;;;;5052497;28;20385;-76
2023/09/15 03:01:39;;;;;;;9.60;4.33;;;12.20;77.80;;;;;;5034070;28;20389;-76
2023/09/15 03:04:05;;;;;;;7.73;4.07;;;12.30;76.00;;;;;;5051946;28;20398;-76
2023/09/15 03:06:31;;;;;;;8.07;4.70;;;12.50;73.40;;;;;;5053719;28;20476;-77
2023/09/15 03:08:56;;;;;;;10.10;4.30;;;12.70;68.90;;;;;;5054889;28;20471;-76
2023/09/15 03:11:22;;;;;;;11.20;4.40;;;12.80;68.30;;;;;;5053902;28;20381;-76
2023/09/15 03:13:48;;;;;;;8.60;3.97;;;12.90;65.50;;;;;;5052189;28;20735;-76
2023/09/15 03:16:13;;;;;;;7.80;4.00;;;12.70;67.10;;;;;;5052150;28;20374;-76
2023/09/15 03:18:39;;;;;;;7.40;4.10;;;12.60;67.10;;;;;;5052123;28;20389;-76
2023/09/15 03:21:05;;;;;;;12.90;4.63;;;12.40;69.80;;;;;;5052141;28;20385;-76
2023/09/15 03:23:31;;;;;;;11.32;4.32;;;12.30;72.30;;;;;;5052087;28;20389;-76
2023/09/15 03:26:01;;;;;;;9.55;4.88;;;12.30;73.80;;;;;;5052011;28;20468;-76
2023/09/15 03:28:27;;;;;;;5.82;3.50;;;12.40;71.70;;;;;;5051845;28;20405;-75
2023/09/15 03:30:53;;;;;;;8.02;3.78;;;12.30;71.90;;;;;;5051693;28;20377;-75
2023/09/15 03:33:18;;;;;;;9.27;3.80;;;12.10;72.50;;;;;;5051732;28;20778;-75
2023/09/15 03:35:44;;;;;;;11.55;3.85;;;12.00;74.50;;;;;;5051496;28;20381;-75
2023/09/15 03:38:09;;;;;;;8.00;3.90;;;12.00;75.50;;;;;;5051638;28;20385;-76
2023/09/15 03:40:35;;;;;;;7.80;4.13;;;11.90;76.90;;;;;;5051618;28;20775;-75
2023/09/15 03:43:01;;;;;;;10.27;4.10;;;12.10;76.20;;;;;;5051349;28;20754;-75
2023/09/15 03:45:28;;;;;;;6.00;3.50;;;12.10;76.80;;;;;;5051369;28;20387;-76
2023/09/15 03:47:54;;;;;;;9.97;4.40;;;12.10;75.40;;;;;;5051545;28;20774;-76
2023/09/15 03:50:21;;;;;;;8.30;3.70;;;12.20;74.50;;;;;;5051455;28;20387;-75
2023/09/15 03:52:50;;;;;;;8.63;3.83;;;12.20;73.90;;;;;;5051239;28;20403;-75
2023/09/15 03:55:17;;;;;;;8.50;4.50;;;12.10;74.60;;;;;;5051419;28;20396;-75
2023/09/15 03:57:42;;;;;;;4.95;3.72;;;12.10;75.90;;;;;;5050428;28;20397;-75
2023/09/15 04:00:15;;;;;;;8.32;4.30;;;12.00;76.20;;;;;;5050300;28;20407;-75
2023/09/15 04:02:41;;;;;;;9.48;4.40;;;12.20;77.40;;;;;;5033282;28;20420;-75
2023/09/15 04:05:07;;;;;;;10.97;3.80;;;12.10;76.40;;;;;;5050820;28;20378;-74
2023/09/15 04:07:32;;;;;;;7.97;3.90;;;12.10;75.70;;;;;;5050748;28;20428;-75
2023/09/15 04:09:58;;;;;;;11.07;4.20;;;12.00;76.60;;;;;;5050637;28;20389;-75
2023/09/15 04:12:24;;;;;;;12.23;4.57;;;12.00;77.30;;;;;;5051719;28;20424;-76
2023/09/15 04:14:49;;;;;;;9.77;4.43;;;11.90;77.50;;;;;;5051260;28;20732;-75
2023/09/15 04:17:15;;;;;;;10.10;3.80;;;11.90;78.10;;;;;;5035999;28;20443;-77
2023/09/15 04:19:41;;;;;;;8.43;3.77;;;12.00;76.90;;;;;;5055952;28;20447;-75
2023/09/15 04:22:06;;;;;;;10.10;4.20;;;12.00;76.40;;;;;;5051437;28;20835;-75
2023/09/15 04:24:32;;;;;;;7.32;3.97;;;12.00;77.90;;;;;;5055075;28;20906;-78
2023/09/15 04:26:57;;;;;;;7.32;4.00;;;12.00;76.70;;;;;;5063293;28;20481;-78
2023/09/15 04:29:23;;;;;;;12.77;5.13;;;12.00;76.10;;;;;;5064897;28;20877;-79
2023/09/15 04:31:48;;;;;;;8.17;4.60;;;12.00;76.50;;;;;;5064942;28;20382;-77
2023/09/15 04:34:14;;;;;;;7.00;4.27;;;12.00;76.60;;;;;;5067420;28;20386;-78
2023/09/15 04:36:40;;;;;;;7.32;4.13;;;12.00;75.90;;;;;;5069176;28;20452;-78
2023/09/15 04:39:07;;;;;;;11.50;4.67;;;11.90;76.70;;;;;;5064190;28;20385;-78
2023/09/15 04:41:32;;;;;;;10.02;4.30;;;11.90;76.80;;;;;;5061622;28;20404;-79
2023/09/15 04:43:58;;;;;;;8.50;4.47;;;12.00;75.70;;;;;;5067750;28;20397;-78
2023/09/15 04:46:24;;;;;;;9.05;4.07;;;12.00;76.00;;;;;;5070209;28;20416;-78
2023/09/15 04:48:50;;;;;;;10.02;4.40;;;12.00;76.30;;;;;;5070434;28;20419;-78
2023/09/15 04:51:16;;;;;;;8.90;4.30;;;11.90;76.70;;;;;;5067250;28;20494;-77
2023/09/15 04:53:42;;;;;;;8.35;4.32;;;12.00;76.20;;;;;;5043860;28;20390;-78
2023/09/15 04:56:07;;;;;;;9.57;4.72;;;12.00;76.10;;;;;;5063264;28;20420;-77
2023/09/15 04:58:33;;;;;;;16.92;4.80;;;11.90;76.70;;;;;;5068081;28;20381;-78
2023/09/15 05:00:59;;;;;;;9.70;4.60;;;12.00;77.00;;;;;;5072148;28;20374;-77
2023/09/15 05:03:25;;;;;;;8.80;4.22;;;12.00;76.60;;;;;;5054211;28;20386;-77
2023/09/15 05:05:53;;;;;;;10.73;5.00;;;12.00;76.80;;;;;;5070921;28;20443;-77
2023/09/15 05:08:19;;;;;;;10.15;4.80;;;12.00;76.70;;;;;;5051919;28;20413;-77
2023/09/15 05:10:48;;;;;;;11.82;4.32;;;12.00;77.20;;;;;;5062060;28;20381;-78
2023/09/15 05:13:14;;;;;;;9.90;4.00;;;12.00;77.50;;;;;;5062514;28;20418;-77
2023/09/15 05:15:40;;;;;;;8.82;3.70;;;12.00;76.90;;;;;;5060992;28;20392;-76
2023/09/15 05:18:05;;;;;;;12.03;4.07;;;12.10;75.20;;;;;;5062464;28;20386;-77
2023/09/15 05:20:31;;;;;;;10.33;4.50;;;12.20;74.00;;;;;;5063481;28;20404;-77
2023/09/15 05:22:57;;;;;;;8.15;4.38;;;12.20;73.90;;;;;;5064038;28;20481;-78
2023/09/15 05:25:22;;;;;;;8.95;4.47;;;12.20;73.50;;;;;;5063880;28;20464;-79
2023/09/15 05:27:48;;;;;;;11.35;4.50;;;12.20;73.60;;;;;;5072080;28;20409;-77
2023/09/15 05:30:15;;;;;;;14.02;4.60;;;12.20;73.20;;;;;;5069103;28;20392;-77
2023/09/15 05:32:41;;;;;;;13.20;5.00;;;12.30;73.70;;;;;;5061697;28;20382;-78
2023/09/15 05:35:09;;;;;;;13.13;4.85;;;12.30;72.90;;;;;;5062563;28;20385;-79
2023/09/15 05:37:35;;;;;;;9.90;5.13;;;12.40;72.90;;;;;;5042861;28;20397;-78
2023/09/15 05:40:00;;;;;;;8.40;4.70;;;12.40;72.20;;;;;;5062461;28;20400;-78
2023/09/15 05:42:26;;;;;;;12.47;5.10;;;12.50;70.80;;;;;;5063086;28;20758;-78
2023/09/15 05:44:54;;;;;;;13.50;4.60;;;12.60;70.20;;;;;;5049327;28;20389;-78
2023/09/15 05:47:20;;;;;;;9.80;4.40;;;12.60;70.80;;;;;;5045739;28;20458;-77
2023/09/15 05:49:46;;;;;;;8.25;4.50;;;12.60;69.60;;;;;;5044366;28;20473;-77
2023/09/15 05:52:12;;;;;;;8.63;4.40;;;12.70;69.30;;;;;;5060940;28;20429;-78
2023/09/15 05:54:37;;;;;;;10.93;4.60;;;12.80;68.00;;;;;;5059749;28;20523;-78
2023/09/15 05:57:03;;;;;;;11.10;4.30;;;12.80;66.20;;;;;;5058602;28;20390;-78
2023/09/15 05:59:28;;;;;;;9.20;4.73;;;12.90;65.50;;;;;;5063162;28;20388;-78
2023/09/15 06:01:56;;;;;;;9.73;5.10;;;13.00;66.20;;;;;;5044536;28;20396;-78
2023/09/15 06:04:21;;;;;;;11.47;5.63;;;13.00;66.30;;;;;;5059191;28;20424;-77
2023/09/15 06:06:47;;;;;;;12.40;5.30;;;13.10;66.20;;;;;;5041409;28;20406;-77
2023/09/15 06:09:13;;;;;;;12.27;4.80;;;13.20;65.40;;;;;;5062275;28;20421;-78
2023/09/15 06:11:39;;;;;;;9.00;4.40;;;13.20;64.70;;;;;;5061231;28;20916;-78
2023/09/15 06:14:04;;;;;;;9.40;4.30;;;13.30;62.90;;;;;;5067701;28;20377;-77
2023/09/15 06:16:34;;;;;;;8.37;4.27;;;13.40;62.10;;;;;;5075098;28;20517;-76
2023/09/15 06:19:01;;;;;;;10.00;3.47;;;13.50;61.70;;;;;;5058325;28;20381;-78
2023/09/15 06:21:26;;;;;;;10.05;4.28;;;13.70;59.60;;;;;;5077189;28;20386;-78
2023/09/15 06:23:52;;;;;;;12.93;4.60;;;13.70;58.90;;;;;;5073678;28;20921;-77
2023/09/15 06:26:17;;;;;;;13.40;4.27;;;13.80;58.70;;;;;;5048373;28;20416;-79
2023/09/15 06:28:43;;;;;;;15.10;4.20;;;13.90;58.20;;;;;;5063622;28;20815;-78
2023/09/15 06:31:09;;;;;;;7.15;4.13;;;14.00;56.80;;;;;;5067485;28;20389;-78
2023/09/15 06:33:34;;;;;;;7.50;3.80;;;14.10;56.70;;;;;;5062866;28;20386;-77
2023/09/15 06:36:00;;;;;;;9.63;4.30;;;14.20;56.50;;;;;;5064727;28;20385;-79
2023/09/15 06:38:26;;;;;;;10.43;4.10;;;14.30;55.30;;;;;;5058790;28;20382;-77
2023/09/15 06:40:53;;;;;;;8.95;3.70;;;14.40;54.20;;;;;;5059007;28;20816;-77
2023/09/15 06:43:19;;;;;;;10.55;3.92;;;14.50;52.20;;;;;;5058538;28;20476;-78
2023/09/15 06:45:44;;;;;;;10.32;4.30;;;14.80;50.50;;;;;;5041594;28;20405;-78
2023/09/15 06:48:10;;;;;;;10.77;4.00;;;14.80;50.70;;;;;;5061551;28;20405;-77
2023/09/15 06:50:36;;;;;;;9.05;3.58;;;14.90;49.00;;;;;;5062778;28;20381;-77
2023/09/15 06:53:01;;;;;;;9.93;3.67;;;15.00;48.40;;;;;;5040863;28;20449;-77
2023/09/15 06:55:27;;;;;;;7.67;3.30;;;15.20;46.80;;;;;;5057229;28;20394;-78
2023/09/15 06:57:53;;;;;;;9.43;3.60;;;15.30;46.40;;;;;;5059268;28;20466;-78
2023/09/15 07:00:19;;;;;;;13.70;3.70;;;15.40;44.70;;;;;;5059995;28;20422;-78
2023/09/15 07:02:45;;;;;;;16.85;3.40;;;15.50;44.80;;;;;;5065604;28;20381;-78
2023/09/15 07:05:11;;;;;;;10.80;4.82;;;15.60;43.90;;;;;;5067765;28;20389;-77
2023/09/15 07:07:36;;;;;;;8.35;3.80;;;15.60;44.20;;;;;;5041149;28;20781;-77
2023/09/15 07:10:04;;;;;;;7.50;3.37;;;15.70;43.70;;;;;;5039255;28;20452;-77
2023/09/15 07:12:30;;;;;;;12.32;3.70;;;15.80;42.10;;;;;;5058685;28;20381;-77
2023/09/15 07:14:56;;;;;;;12.10;3.40;;;15.90;42.50;;;;;;5059810;28;20386;-78
2023/09/15 07:17:22;;;;;;;9.57;3.75;;;16.00;41.90;;;;;;5056941;28;20389;-78
2023/09/15 07:19:47;;;;;;;10.70;3.80;;;16.00;42.20;;;;;;5061355;28;20403;-77
2023/09/15 07:22:13;;;;;;;15.68;6.38;;;16.10;41.80;;;;;;5036180;28;20399;-77
2023/09/15 07:24:41;;;;;;;14.07;4.00;;;16.20;40.60;;;;;;5053347;28;20488;-77
2023/09/15 07:27:10;;;;;;;10.50;3.90;;;16.30;40.90;;;;;;5060259;28;20435;-78
2023/09/15 07:29:36;;;;;;;8.27;3.80;;;16.50;39.90;;;;;;5039146;28;21000;-77
2023/09/15 07:32:02;;;;;;;13.90;3.80;;;16.70;38.90;;;;;;5058099;28;20381;-77
2023/09/15 07:34:28;;;;;;;9.13;3.40;;;16.80;38.80;;;;;;5060107;28;20389;-77
2023/09/15 07:36:53;;;;;;;13.87;4.43;;;17.00;37.80;;;;;;5057456;28;20385;-78
2023/09/15 07:39:19;;;;;;;9.00;3.60;;;17.00;37.70;;;;;;5039006;28;20397;-77
2023/09/15 07:41:48;;;;;;;9.45;3.70;;;17.10;38.30;;;;;;5057071;28;20385;-77
2023/09/15 07:44:14;;;;;;;13.20;3.50;;;17.30;37.70;;;;;;5036634;28;20769;-77
2023/09/15 07:46:40;;;;;;;6.97;3.35;;;17.30;37.00;;;;;;5056089;28;20382;-77
2023/09/15 07:49:07;;;;;;;9.57;3.83;;;17.40;36.40;;;;;;5055281;28;20419;-77
2023/09/15 07:51:33;;;;;;;13.30;3.85;;;17.60;36.50;;;;;;5054737;28;20382;-77
2023/09/15 07:53:58;;;;;;;12.18;3.85;;;17.70;36.10;;;;;;5059495;28;20413;-78
2023/09/15 07:56:24;;;;;;;8.90;3.17;;;17.70;35.70;;;;;;5063437;28;20390;-78
2023/09/15 07:58:50;;;;;;;9.20;4.43;;;17.70;35.70;;;;;;5068851;28;20428;-78
2023/09/15 08:01:15;;;;;;;8.30;3.50;;;17.70;35.50;;;;;;5065892;28;20385;-77
2023/09/15 08:03:41;;;;;;;10.38;3.63;;;17.80;35.70;;;;;;5068445;28;20389;-78
2023/09/15 08:06:08;;;;;;;11.05;3.60;;;17.90;35.30;;;;;;5051799;28;20414;-77
2023/09/15 08:08:34;;;;;;;10.57;3.35;;;17.90;34.90;;;;;;5072138;28;20437;-77
2023/09/15 08:11:00;;;;;;;12.80;3.80;;;18.00;34.50;;;;;;5073283;28;20369;-77
2023/09/15 08:13:26;;;;;;;7.10;3.30;;;18.00;34.40;;;;;;5071407;28;20405;-77
2023/09/15 08:15:52;;;;;;;10.63;3.70;;;18.00;34.20;;;;;;5071823;28;20392;-77
2023/09/15 08:18:23;;;;;;;7.28;3.22;;;18.10;34.30;;;;;;5070982;28;20381;-77
2023/09/15 08:20:49;;;;;;;6.13;2.95;;;18.10;34.10;;;;;;5073383;28;20443;-78
2023/09/15 08:23:15;;;;;;;9.27;3.17;;;18.00;34.60;;;;;;5044023;28;20746;-77
2023/09/15 08:25:41;;;;;;;8.43;3.10;;;18.10;33.90;;;;;;5065249;28;20397;-78
2023/09/15 08:28:07;;;;;;;8.80;3.30;;;18.00;33.50;;;;;;5056458;28;20436;-78
2023/09/15 08:30:33;;;;;;;11.63;3.72;;;18.10;34.10;;;;;;5056277;28;20495;-76
2023/09/15 08:32:59;;;;;;;9.20;3.30;;;18.20;33.90;;;;;;5056737;28;20953;-78
2023/09/15 08:35:26;;;;;;;11.60;3.55;;;18.30;33.60;;;;;;5037896;28;20886;-77
2023/09/15 08:37:52;;;;;;;7.45;3.08;;;18.50;33.00;;;;;;5053936;28;20451;-78
2023/09/15 08:40:19;;;;;;;8.20;3.70;;;18.60;31.90;;;;;;5056811;28;20428;-78
2023/09/15 08:42:45;;;;;;;12.02;3.60;;;18.50;32.40;;;;;;5054618;28;20393;-77
2023/09/15 08:45:11;;;;;;;4.70;2.73;;;18.70;32.10;;;;;;5035744;28;20506;-78
2023/09/15 08:47:43;;;;;;;5.00;2.80;;;18.80;31.30;;;;;;5059211;28;20433;-78
2023/09/15 08:50:09;;;;;;;7.53;3.08;;;18.80;32.00;;;;;;5044662;28;20387;-78
2023/09/15 08:52:38;;;;;;;5.90;2.85;;;18.80;31.70;;;;;;5063410;28;20421;-78
2023/09/15 08:55:04;;;;;;;12.30;3.60;;;18.90;31.50;;;;;;5047576;28;20423;-78
2023/09/15 08:57:31;;;;;;;6.40;2.92;;;19.00;31.00;;;;;;5044307;28;20378;-77
2023/09/15 08:59:59;;;;;;;8.07;2.97;;;19.00;31.00;;;;;;5056954;28;20393;-78
2023/09/15 09:02:25;;;;;;;8.65;3.20;;;19.00;30.80;;;;;;5065038;28;20369;-78
2023/09/15 09:04:51;;;;;;;9.35;3.00;;;19.10;31.10;;;;;;5062566;28;20389;-78
2023/09/15 09:07:16;;;;;;;9.40;3.30;;;19.30;30.80;;;;;;5036790;23;20433;-75
2023/09/15 09:09:44;;;;;;;9.27;2.90;;;19.30;30.80;;;;;;5034845;28;20398;-75
2023/09/15 09:12:09;;;;;;;6.50;3.27;;;19.30;30.30;;;;;;5034403;28;20394;-76
2023/09/15 09:14:36;;;;;;;6.47;3.00;;;19.40;30.00;;;;;;5035550;28;20387;-74
2023/09/15 09:17:02;;;;;;;6.93;2.90;;;19.50;29.90;;;;;;5045783;28;20373;-75
2023/09/15 09:19:42;;;;;;;6.90;2.97;;;19.50;29.50;;;;;;5055206;28;20390;-75
2023/09/15 09:22:08;;;;;;;10.18;3.17;;;19.50;29.40;;;;;;5054277;28;20389;-75
2023/09/15 09:24:37;;;;;;;10.20;3.38;;;19.70;29.50;;;;;;5054051;28;20386;-76
2023/09/15 09:27:10;;;;;;;11.23;3.40;;;19.70;29.80;;;;;;5054249;28;20397;-75
2023/09/15 09:29:36;;;;;;;7.90;3.30;;;19.70;28.80;;;;;;5055494;28;20388;-75
2023/09/15 09:32:02;;;;;;;9.73;4.40;;;19.80;29.00;;;;;;5057326;28;20381;-76
2023/09/15 09:34:27;;;;;;;9.98;3.80;;;19.80;29.90;;;;;;5058050;28;20405;-75
2023/09/15 09:36:53;;;;;;;7.23;3.90;;;19.90;29.60;;;;;;5038002;28;20443;-75
2023/09/15 09:39:19;;;;;;;7.70;3.23;;;20.00;29.40;;;;;;5054019;28;20525;-75
2023/09/15 09:41:45;;;;;;;6.03;3.30;;;20.10;28.40;;;;;;5053636;28;20400;-75
2023/09/15 09:44:14;;;;;;;7.57;3.70;;;20.20;28.90;;;;;;5053700;28;20383;-75
2023/09/15 09:46:40;;;;;;;8.98;4.10;;;20.30;26.80;;;;;;5053716;28;20417;-76
2023/09/15 09:49:07;;;;;;;7.53;3.78;;;20.20;25.60;;;;;;5035701;28;20408;-74
2023/09/15 09:51:35;;;;;;;5.95;3.30;;;20.40;25.30;;;;;;5053701;28;20801;-75
2023/09/15 09:54:02;;;;;;;9.63;4.20;;;20.50;25.00;;;;;;5053599;28;20452;-75
2023/09/15 09:56:31;;;;;;;7.72;3.53;;;20.40;24.50;;;;;;5053714;28;20381;-75
2023/09/15 09:59:09;;;;;;;6.30;3.63;;;20.50;25.60;;;;;;5053684;28;20385;-75
2023/09/15 10:01:34;;;;;;;5.88;3.17;;;20.50;25.40;;;;;;5054163;28;20400;-74
2023/09/15 10:04:00;;;;;;;8.03;3.60;;;20.60;25.10;;;;;;5053400;28;20393;-74
2023/09/15 10:06:27;;;;;;;9.07;3.10;;;20.70;25.00;;;;;;5053221;28;20480;-74
2023/09/15 10:08:57;;;;;;;11.40;4.30;;;20.70;24.90;;;;;;5052717;28;20408;-74
2023/09/15 10:11:23;;;;;;;7.95;4.10;;;20.70;23.90;;;;;;5053427;28;20412;-75
2023/09/15 10:13:50;;;;;;;6.60;3.78;;;20.70;24.00;;;;;;5053476;28;20389;-74
2023/09/15 10:16:16;;;;;;;7.90;3.95;;;20.80;24.30;;;;;;5053647;28;20378;-75
2023/09/15 10:18:44;;;;;;;11.57;4.35;;;20.90;25.20;;;;;;5053882;28;20391;-75
2023/09/15 10:21:10;;;;;;;9.23;4.10;;;21.00;24.60;;;;;;5054439;28;20393;-75
2023/09/15 10:23:35;;;;;;;8.82;4.00;;;21.00;23.90;;;;;;5057431;28;20389;-74
2023/09/15 10:26:06;;;;;;;8.87;4.13;;;21.00;24.20;;;;;;5056778;28;20950;-75
2023/09/15 10:28:32;;;;;;;10.30;4.10;;;21.10;24.50;;;;;;5058930;28;20418;-74
2023/09/15 10:30:58;;;;;;;8.10;3.30;;;21.20;25.10;;;;;;5054682;28;20435;-74
2023/09/15 10:33:28;;;;;;;6.30;3.20;;;21.30;25.10;;;;;;5056947;28;20438;-75
2023/09/15 10:36:03;;;;;;;6.82;3.63;;;21.40;24.60;;;;;;5054750;28;20440;-75
2023/09/15 10:38:29;;;;;;;6.63;4.38;;;21.50;23.70;;;;;;5053673;28;20377;-75
2023/09/15 10:40:58;;;;;;;11.48;4.60;;;21.50;22.90;;;;;;5054559;28;20940;-75
2023/09/15 10:43:23;;;;;;;5.57;3.73;;;21.40;22.60;;;;;;5053405;28;20390;-75
2023/09/15 10:46:07;;;;;;;8.50;3.80;;;21.70;22.50;;;;;;5054805;28;20889;-75
2023/09/15 10:48:44;;;;;;;9.07;3.90;;;21.60;22.40;;;;;;5038188;28;20868;-75
2023/09/15 10:51:10;;;;;;;9.18;3.80;;;21.60;22.70;;;;;;5054083;28;20405;-75
2023/09/15 10:53:59;;;;;;;5.57;3.22;;;21.50;22.80;;;;;;5053559;28;20722;-75
2023/09/15 10:56:25;;;;;;;6.32;3.50;;;21.70;22.80;;;;;;5056342;28;20382;-75
2023/09/15 10:58:51;;;;;;;7.77;3.60;;;21.80;22.90;;;;;;5056496;28;20472;-75
2023/09/15 11:01:17;;;;;;;6.80;3.50;;;21.80;22.30;;;;;;5055759;28;20386;-75
2023/09/15 11:03:44;;;;;;;8.07;3.38;;;21.80;21.50;;;;;;5055225;28;20876;-74
2023/09/15 11:06:17;;;;;;;6.43;3.30;;;21.80;21.60;;;;;;5053341;28;20397;-74
2023/09/15 11:08:43;;;;;;;8.57;3.20;;;21.90;21.70;;;;;;5053394;28;20762;-74
2023/09/15 11:11:10;;;;;;;9.15;3.30;;;22.00;21.70;;;;;;5052824;28;20465;-74
2023/09/15 11:13:37;;;;;;;5.75;3.58;;;21.90;21.70;;;;;;5052297;28;20413;-74
2023/09/15 11:16:03;;;;;;;6.38;3.30;;;22.00;22.10;;;;;;5052008;28;20389;-75
2023/09/15 11:18:33;;;;;;;5.95;2.80;;;22.10;22.10;;;;;;5052399;28;20728;-74
2023/09/15 11:20:58;;;;;;;6.70;3.20;;;22.20;21.90;;;;;;5052949;28;20796;-75
2023/09/15 11:23:24;;;;;;;6.33;3.40;;;22.20;21.30;;;;;;5052634;28;20385;-75
2023/09/15 11:26:07;;;;;;;5.43;2.90;;;22.10;22.50;;;;;;5053567;28;20600;-77
2023/09/15 11:28:36;;;;;;;7.47;3.05;;;22.30;20.80;;;;;;5053132;28;20402;-76
2023/09/15 11:31:06;;;;;;;6.57;3.10;;;22.40;20.40;;;;;;5051906;28;20377;-76
2023/09/15 11:33:32;;;;;;;5.60;3.60;;;22.40;19.90;;;;;;5051810;28;20381;-76
2023/09/15 11:35:57;;;;;;;6.20;2.92;;;22.40;20.30;;;;;;5051843;28;20392;-75
2023/09/15 11:38:24;;;;;;;3.88;2.80;;;22.50;20.80;;;;;;5051515;28;20390;-75
2023/09/15 11:40:50;;;;;;;3.65;2.35;;;22.50;20.00;;;;;;5051298;28;20386;-76
2023/09/15 11:43:20;;;;;;;4.55;2.50;;;22.50;19.90;;;;;;5033511;28;20891;-74
2023/09/15 11:45:46;;;;;;;4.38;2.50;;;22.50;19.70;;;;;;5051612;28;20387;-74
2023/09/15 11:48:12;;;;;;;2.80;1.83;;;22.60;19.20;;;;;;5033593;28;20637;-75
2023/09/15 11:50:39;;;;;;;2.90;2.23;;;22.70;18.00;;;;;;5051103;28;20392;-75
2023/09/15 11:53:05;;;;;;;4.70;2.17;;;22.80;17.60;;;;;;5050627;28;20464;-75
2023/09/15 11:55:31;;;;;;;4.50;2.40;;;22.90;18.00;;;;;;5051282;28;20487;-75
2023/09/15 11:57:57;;;;;;;5.85;2.15;;;23.00;18.10;;;;;;5051123;28;20396;-75
2023/09/15 12:00:28;;;;;;;3.50;2.10;;;23.00;17.60;;;;;;5051075;28;20385;-75
2023/09/15 12:02:55;;;;;;;4.60;2.50;;;22.90;17.00;;;;;;5051099;28;20378;-75
2023/09/15 12:05:22;;;;;;;6.72;3.42;;;22.90;17.70;;;;;;5051376;28;20395;-75
2023/09/15 12:07:48;;;;;;;3.80;2.20;;;23.00;18.50;;;;;;5050819;28;20417;-75
2023/09/15 12:10:26;;;;;;;5.70;2.80;;;22.90;17.50;;;;;;5051141;28;20785;-75
2023/09/15 12:12:59;;;;;;;6.70;2.75;;;22.90;18.00;;;;;;5050492;28;20381;-76
2023/09/15 12:15:25;;;;;;;7.70;3.20;;;23.00;18.70;;;;;;5050803;28;20405;-75
2023/09/15 12:17:52;;;;;;;6.50;3.42;;;23.00;18.80;;;;;;5050742;28;20389;-75
2023/09/15 12:20:24;;;;;;;5.13;2.77;;;23.00;18.50;;;;;;5050881;28;20434;-75
2023/09/15 12:22:53;;;;;;;5.68;2.67;;;23.10;17.80;;;;;;5050573;28;20389;-75
2023/09/15 12:25:19;;;;;;;5.90;3.10;;;23.10;17.90;;;;;;5050681;28;20443;-75
2023/09/15 12:27:45;;;;;;;4.77;2.70;;;23.20;17.90;;;;;;5050325;28;20513;-75
2023/09/15 12:30:12;;;;;;;6.95;4.50;;;23.30;18.60;;;;;;5050759;28;20388;-75
2023/09/15 12:32:38;;;;;;;6.32;2.58;;;23.40;18.50;;;;;;5050364;28;20473;-74
2023/09/15 12:35:11;;;;;;;4.20;2.30;;;23.30;17.40;;;;;;5049774;28;20452;-75
2023/09/15 12:37:41;;;;;;;4.50;2.40;;;23.40;17.40;;;;;;5050156;28;20867;-75
2023/09/15 12:40:07;;;;;;;5.17;3.13;;;23.40;17.30;;;;;;5050047;28;20382;-75
2023/09/15 12:42:33;;;;;;;6.63;2.80;;;23.50;17.50;;;;;;5050091;28;20381;-75